Aberhosan, United Kingdom

11:00 AM GMT on November 01, 2014 (GMT +0000)
Aberllefenni - Corris | Change Station
CLOSE
Current Station
Personal Weather Station
Location: Machynlleth, POWYS
Elevation: 367 ft
Nearby Weather Stations

Elev 367 ft 52.67 °N, 3.82 °W | Updated 3 seconds ago

Partly Cloudy
Partly Cloudy
54.5 °F
Feels Like 54.5 °F
N
5.8
Wind Variable Wind from South
Gusts 5.8 mph

Today
High -- | Low -- °F
--% Chance of Precip.
Yesterday
High -- | Low -- °F
Precip. -- in
7:11 AM 4:45 PM
Waxing Gibbous, 65% visible
Pressure 29.89 in
Visibility 6.2 miles
Clouds Few 2000 ft
Dew Point 51 °F
Humidity 89%
Rainfall 0.11 in
Snow Depth Not available.
UV 1 out of 12
Pollen Not available.
Air Quality Not available.
Flu Activity Not available.
METAR EGNR 011050Z 20011KT 9999 FEW020 15/09 Q1012

More Conditions Fewer Conditions

Pressure 29.89 in
Visibility 6.2 miles
Clouds Few 2000 ft
Dew Point 51 °F
Humidity 89%
Rainfall 0.11 in
Snow Depth Not available.
UV 1 out of 12
Pollen Not available.
Air Quality Not available.
Flu Activity Not available.
METAR EGNR 011050Z 20011KT 9999 FEW020 15/09 Q1012

More Conditions Fewer Conditions

10-Day Weather Forecast

Almanac

Astronomy

Nov. 01, 2014 Rise Set
Actual Time
Civil Twilight
Nautical Twilight
Astronomical Twilight
Moon
Length of Visible Light
Length of Day
Tomorrow will be .
, % of the Moon is Illuminated

Today's Extremes

Country Highs Country Lows

Community

WunderPhotos

Upload Photos

1,766,878 photos uploaded!

WunderBlogs® & News

Nearby

Air Quality

  Air Quality AQ Index Pollutant
Not available.

Snow Depth

Station Depth Elevation

Earthquake Activity

City Distance Mag. Time & Date
Minimum magnitude displayed is 2.5.

Coastal Water Temperatures

Place Temperature

Nearby Weather Stations